Luchthavens in de buurt

   
Beek
Gewijzigd: 22-10-2019 10:25
Bewolking  
Bewolking  
   Wind: ZW 20.4 km/h
Wind: ZW 20.4 km/h
Temperatuur: 12°C
Dauwpunt: 10°C
Vochtigheid: 88%
Barometer: 1024 hPa
Bewolking: Bewolking
Zicht: meer dan 10 km
Bewolking: Bewolking 213.4 m
EHBK 220825Z AUTO 22011KT 9999 OVC007 12/10 Q1024 TEMPO BKN012
Eindhoven
Gewijzigd: 22-10-2019 10:25
Nevel, Bewolking  
Nevel, Bewolking  
   Wind: ZZW 14.8 km/h
Wind: ZZW 14.8 km/h
Temperatuur: 13°C
Dauwpunt: 12°C
Vochtigheid: 94%
Barometer: 1023 hPa
Bewolking: Bewolking
Zicht: 7 km
Bewolking: Gedeeltelijk bewolkt 152.4 m,
Bewolking 213.4 m
EHEH 220825Z AUTO 21008KT 7000 BR SCT005 OVC007 13/12 Q1023 YLO 20008KT 9999 SCT005 BKN006 BKN010
Rotterdam
Gewijzigd: 22-10-2019 10:25
Grotendeels bewolkt  
Grotendeels bewolkt  
   Wind: ZZW 9.3 km/h
Wind: ZZW 9.3 km/h
Temperatuur: 13°C
Dauwpunt: 13°C
Vochtigheid: 100%
Barometer: 1022 hPa
Bewolking: Grotendeels bewolkt
Zicht: 7 km
Bewolking: Licht bewolkt 274.3 m,
Gedeeltelijk bewolkt 487.7 m,
Grotendeels bewolkt 609.6 m
EHRD 220825Z AUTO 21005KT 7000 FEW009 SCT016 BKN020 13/13 Q1022 NOSIG
Amsterdam
Gewijzigd: 22-10-2019 10:25
Lichte (mot)regen, Nevel, Grotendeels bewolkt  
Lichte (mot)regen, Nevel, Grotendeels bewolkt  
   Wind: Zuiden 11.1 km/h
Wind: Zuiden 11.1 km/h
Temperatuur: 13°C
Dauwpunt: 12°C
Vochtigheid: 94%
Barometer: 1022 hPa
Bewolking: Grotendeels bewolkt
Zicht: 5 km
Bewolking: Licht bewolkt 152.4 m,
Gedeeltelijk bewolkt 457.2 m,
Grotendeels bewolkt 914.4 m
EHAM 220825Z 19006KT 5000 -DZ BR FEW005 SCT015 BKN030 13/12 Q1022 TEMPO 3500 BKN008
Luik
Gewijzigd: 22-10-2019 10:20
Grotendeels bewolkt  
Grotendeels bewolkt  
   Wind: ZZW 13 km/h
Wind: ZZW 13 km/h
Temperatuur: 11°C
Dauwpunt: 9°C
Vochtigheid: 88%
Barometer: 1025 hPa
Bewolking: Grotendeels bewolkt
Zicht: meer dan 10 km
Bewolking: Gedeeltelijk bewolkt 274.3 m,
Grotendeels bewolkt 335.3 m
EBLG 220820Z 21007KT 190V250 9999 SCT009 BKN011 11/09 Q1025 BECMG BKN016
Brussel
Gewijzigd: 22-10-2019 10:20
Grotendeels bewolkt  
Grotendeels bewolkt  
   Wind: ZW 13 km/h
Wind: ZW 13 km/h
Temperatuur: 12°C
Dauwpunt: 11°C
Vochtigheid: 94%
Barometer: 1024 hPa
Bewolking: Grotendeels bewolkt
Zicht: meer dan 10 km
Bewolking: Licht bewolkt 304.8 m,
Gedeeltelijk bewolkt 365.8 m,
Grotendeels bewolkt 944.9 m
EBBR 220820Z 22007KT 9999 FEW010 SCT012 BKN031 12/11 Q1024 TEMPO BKN012
Luxemburg
Gewijzigd: 22-10-2019 10:20
Licht bewolkt  
Licht bewolkt  
   Wind: OZO 7.4 km/h
Wind: OZO 7.4 km/h
Temperatuur: 9°C
Voelt als: 8°C
Dauwpunt: 8°C
Vochtigheid: 94%
Barometer: 1025 hPa
Bewolking: Licht bewolkt
Zicht: 8 km
Bewolking: Licht bewolkt 304.8 m
ELLX 220820Z 11004KT 080V140 8000 FEW010 09/08 Q1025 NOSIG
Dusseldorf
Gewijzigd: 22-10-2019 10:20
Grotendeels bewolkt  
Grotendeels bewolkt  
   Wind: Zuiden 13 km/h
Wind: Zuiden 13 km/h
Temperatuur: 12°C
Dauwpunt: 9°C
Vochtigheid: 82%
Barometer: 1024 hPa
Bewolking: Grotendeels bewolkt
Zicht: meer dan 10 km
Bewolking: Licht bewolkt 426.7 m,
Gedeeltelijk bewolkt 548.6 m,
Grotendeels bewolkt 853.4 m
EDDL 220820Z 18007KT 9999 FEW014 SCT018 BKN028 12/09 Q1024 NOSIG
Frankfurt
Gewijzigd: 22-10-2019 10:20
Grotendeels bewolkt  
Grotendeels bewolkt  
   Wind: varieert 3.7 km/h
Wind: varieert 3.7 km/h
Temperatuur: 13°C
Dauwpunt: 9°C
Vochtigheid: 77%
Barometer: 1025 hPa
Bewolking: Grotendeels bewolkt
Zicht: meer dan 10 km
Bewolking: Licht bewolkt 518.2 m,
Grotendeels bewolkt 1371.6 m
EDDF 220820Z VRB02KT 9999 FEW017 BKN045 13/09 Q1025 NOSIG

Originele script door Saratoga weather  Aangepast door weerstation Leuven 

U vindt ons ook hier:

WeatherlinkIP

Weather Underground

KnmiWow

UK Metoffice

Apparatuur in gebruik:

Weerstation
Davis Vantage Pro 2

Datalogger
Davis Weatherlink

Weercomputer
Meteobridge Pro

Leverancier
Weerspecialist

Webleverancier
Robohost

Davis Vantage Pro 2

Davis Weatherlink

Meteobridge Pro

Weerspecialist

Robohost